Time;durP1;ratioP1;P1;durP2;ratioP2;P2;SDS_P1;SDS_P2;PMS_P1;PMS_P2;Temp;Humidity;BMP_temperature;BMP_pressure;BME280_temperature;BME280_humidity;BME280_pressure;Samples;Min_cycle;Max_cycle;Signal;HPM_P1;HPM_P2
2023/03/03 00:00:59;;;;;;;54.38;27.73;;;1.90;99.90;;;;;;5092435;28;20518;-51
2023/03/03 00:03:28;;;;;;;55.55;30.08;;;1.90;99.90;;;;;;5097885;28;20520;-49
2023/03/03 00:05:54;;;;;;;53.20;27.50;;;1.90;99.90;;;;;;5093516;28;20082;-50
2023/03/03 00:08:20;;;;;;;61.28;30.33;;;1.90;99.90;;;;;;5087047;28;20149;-49
2023/03/03 00:10:46;;;;;;;49.63;26.55;;;2.00;99.90;;;;;;5084310;28;20483;-49
2023/03/03 00:13:17;;;;;;;51.58;27.85;;;2.00;99.90;;;;;;5088471;28;20057;-48
2023/03/03 00:15:43;;;;;;;46.35;25.15;;;1.90;99.90;;;;;;5090514;28;20055;-49
2023/03/03 00:18:35;;;;;;;50.70;25.95;;;2.00;99.90;;;;;;5089436;28;20044;-49
2023/03/03 00:21:19;;;;;;;46.03;24.05;;;1.90;99.90;;;;;;5091175;28;20063;-50
2023/03/03 00:23:45;;;;;;;42.75;22.00;;;2.00;99.90;;;;;;5089069;28;20047;-51
2023/03/03 00:26:36;;;;;;;47.45;25.48;;;1.90;99.90;;;;;;5086907;28;20036;-53
2023/03/03 00:29:18;;;;;;;39.83;22.45;;;1.90;99.90;;;;;;5079594;28;20056;-49
2023/03/03 00:31:44;;;;;;;36.13;19.98;;;2.00;99.90;;;;;;5086787;28;20064;-49
2023/03/03 00:34:27;;;;;;;45.33;23.92;;;2.00;99.90;;;;;;5085239;28;20513;-49
2023/03/03 00:36:55;;;;;;;34.20;19.52;;;2.00;99.90;;;;;;5084642;28;20032;-49
2023/03/03 00:39:32;;;;;;;28.13;14.18;;;1.90;99.90;;;;;;5084925;28;20123;-52
2023/03/03 00:41:59;;;;;;;30.90;17.03;;;2.00;99.90;;;;;;5084609;28;20093;-53
2023/03/03 00:44:48;;;;;;;34.47;20.35;;;1.90;99.90;;;;;;5080516;28;20066;-49
2023/03/03 00:47:37;;;;;;;33.58;19.27;;;1.90;99.90;;;;;;5087969;28;20557;-49
2023/03/03 00:50:05;;;;;;;35.40;19.67;;;1.90;99.90;;;;;;5086993;28;20040;-49
2023/03/03 00:52:35;;;;;;;29.23;17.98;;;1.90;99.90;;;;;;5086113;28;20056;-50
2023/03/03 00:55:01;;;;;;;28.73;19.52;;;1.90;99.90;;;;;;5087174;28;20570;-50
2023/03/03 00:57:27;;;;;;;24.00;14.68;;;1.90;99.90;;;;;;5088610;28;20051;-49
2023/03/03 00:59:53;;;;;;;29.65;15.90;;;1.90;99.90;;;;;;5085635;28;20098;-50
2023/03/03 01:02:18;;;;;;;30.88;20.40;;;1.80;99.90;;;;;;5088205;28;20048;-49
2023/03/03 01:04:49;;;;;;;33.28;20.02;;;1.80;99.90;;;;;;5084592;28;20032;-49
2023/03/03 01:07:15;;;;;;;34.50;21.20;;;1.80;99.90;;;;;;5090034;28;20087;-49
2023/03/03 01:09:40;;;;;;;33.03;18.70;;;1.80;99.90;;;;;;5093687;28;20075;-48
2023/03/03 01:12:06;;;;;;;31.00;17.42;;;1.80;99.90;;;;;;5108116;28;20489;-50
2023/03/03 01:14:32;;;;;;;35.63;19.80;;;1.80;99.90;;;;;;5104832;28;20036;-49
2023/03/03 01:16:58;;;;;;;31.88;18.70;;;1.80;99.90;;;;;;5109945;28;20043;-50
2023/03/03 01:19:23;;;;;;;33.00;19.20;;;1.80;99.90;;;;;;5083085;28;20043;-50
2023/03/03 01:21:49;;;;;;;29.35;16.73;;;1.70;99.90;;;;;;5101977;28;20043;-49
2023/03/03 01:24:15;;;;;;;18.35;10.27;;;1.70;99.90;;;;;;5107017;28;20040;-49
2023/03/03 01:26:41;;;;;;;27.33;17.05;;;1.70;99.90;;;;;;5107865;28;20040;-50
2023/03/03 01:29:06;;;;;;;29.00;18.13;;;1.70;99.90;;;;;;5107494;28;20367;-49
2023/03/03 01:31:32;;;;;;;28.13;17.10;;;1.60;99.90;;;;;;5106381;28;20042;-49
2023/03/03 01:33:57;;;;;;;26.33;17.33;;;1.60;99.90;;;;;;5109429;28;20416;-49
2023/03/03 01:36:24;;;;;;;29.45;18.48;;;1.60;99.90;;;;;;5106233;28;20063;-51
2023/03/03 01:38:50;;;;;;;32.38;19.73;;;1.60;99.90;;;;;;5103961;28;20073;-49
2023/03/03 01:41:15;;;;;;;29.20;18.60;;;1.60;99.90;;;;;;5087782;28;20065;-49
2023/03/03 01:43:46;;;;;;;31.00;16.85;;;1.60;99.90;;;;;;5107420;28;20509;-49
2023/03/03 01:46:28;;;;;;;28.98;17.88;;;1.60;99.90;;;;;;5106493;28;20044;-49
2023/03/03 01:49:01;;;;;;;28.42;16.77;;;1.60;99.90;;;;;;5103920;28;20497;-51
2023/03/03 01:51:42;;;;;;;33.10;20.63;;;1.60;99.90;;;;;;5112917;28;20096;-50
2023/03/03 01:54:15;;;;;;;33.70;20.13;;;1.60;99.90;;;;;;5109973;28;20047;-51
2023/03/03 01:56:42;;;;;;;30.88;18.23;;;1.60;99.90;;;;;;5107891;28;20508;-48
2023/03/03 01:59:17;;;;;;;30.60;17.30;;;1.60;99.90;;;;;;5114079;28;20119;-48
2023/03/03 02:01:44;;;;;;;32.42;18.70;;;1.60;99.90;;;;;;5113630;28;20074;-49
2023/03/03 02:04:10;;;;;;;29.27;17.83;;;1.60;99.90;;;;;;5095810;28;20492;-49
2023/03/03 02:06:39;;;;;;;32.72;20.40;;;1.60;99.90;;;;;;5113977;28;20042;-49
2023/03/03 02:09:29;;;;;;;32.58;19.13;;;1.60;99.90;;;;;;5113925;28;20505;-48
2023/03/03 02:11:58;;;;;;;31.80;17.60;;;1.60;99.90;;;;;;5105899;28;20043;-48
2023/03/03 02:14:25;;;;;;;28.48;16.67;;;1.70;99.90;;;;;;5099112;28;20036;-48
2023/03/03 02:16:51;;;;;;;32.70;18.88;;;1.70;99.90;;;;;;5113833;28;20481;-49
2023/03/03 02:19:29;;;;;;;30.95;18.23;;;1.70;99.90;;;;;;5104697;28;20038;-48
2023/03/03 02:21:54;;;;;;;29.25;18.92;;;1.70;99.90;;;;;;5113951;28;20114;-50
2023/03/03 02:24:28;;;;;;;32.88;18.65;;;1.70;99.90;;;;;;5113235;28;20115;-50
2023/03/03 02:26:54;;;;;;;30.35;18.20;;;1.70;99.90;;;;;;5114027;28;20071;-51
2023/03/03 02:29:20;;;;;;;31.98;18.75;;;1.70;99.90;;;;;;5102014;28;20074;-49
2023/03/03 02:31:45;;;;;;;30.77;19.05;;;1.70;99.90;;;;;;5092604;28;20080;-49
2023/03/03 02:34:11;;;;;;;32.95;18.73;;;1.70;99.90;;;;;;5093396;28;20427;-49
2023/03/03 02:36:38;;;;;;;34.90;18.73;;;1.70;99.90;;;;;;5100456;28;20435;-49
2023/03/03 02:39:07;;;;;;;30.75;17.60;;;1.70;99.90;;;;;;5113377;28;20130;-50
2023/03/03 02:41:54;;;;;;;37.92;20.27;;;1.70;99.90;;;;;;5113440;28;20039;-51
2023/03/03 02:44:23;;;;;;;28.90;14.00;;;1.70;99.90;;;;;;5094303;28;20116;-52
2023/03/03 02:46:51;;;;;;;33.22;18.13;;;1.70;99.90;;;;;;5094100;28;20077;-50
2023/03/03 02:49:22;;;;;;;38.50;18.85;;;1.60;99.90;;;;;;5103514;28;20032;-50
2023/03/03 02:51:48;;;;;;;29.83;16.00;;;1.60;99.90;;;;;;5109998;28;20120;-52
2023/03/03 02:54:16;;;;;;;33.85;19.45;;;1.60;99.90;;;;;;5105184;28;20063;-50
2023/03/03 02:56:42;;;;;;;31.63;18.15;;;1.60;99.90;;;;;;5113319;28;20079;-49
2023/03/03 02:59:08;;;;;;;36.28;18.92;;;1.60;99.90;;;;;;5106268;28;20085;-49
2023/03/03 03:01:37;;;;;;;32.05;16.15;;;1.60;99.90;;;;;;5109795;28;20047;-49
2023/03/03 03:04:17;;;;;;;34.25;17.65;;;1.60;99.90;;;;;;5099923;28;20485;-51
2023/03/03 03:06:43;;;;;;;38.78;18.48;;;1.60;99.90;;;;;;5099825;28;20048;-48
2023/03/03 03:09:10;;;;;;;34.30;18.02;;;1.50;99.90;;;;;;5112158;28;20036;-49
2023/03/03 03:11:37;;;;;;;49.00;17.42;;;1.50;99.90;;;;;;5111439;28;20043;-50
2023/03/03 03:14:04;;;;;;;37.85;15.95;;;1.50;99.90;;;;;;5112930;28;20055;-52
2023/03/03 03:16:30;;;;;;;30.63;11.77;;;1.60;99.90;;;;;;5108874;28;20396;-50
2023/03/03 03:18:58;;;;;;;43.53;17.67;;;1.50;99.90;;;;;;5105351;28;20055;-49
2023/03/03 03:21:24;;;;;;;36.33;17.10;;;1.50;99.90;;;;;;5105334;28;20043;-49
2023/03/03 03:23:49;;;;;;;37.80;17.52;;;1.50;99.90;;;;;;5100831;28;20033;-49
2023/03/03 03:26:15;;;;;;;40.45;17.00;;;1.50;99.90;;;;;;5105104;28;20043;-48
2023/03/03 03:28:41;;;;;;;50.28;17.85;;;1.50;99.90;;;;;;5104737;28;20478;-50
2023/03/03 03:31:08;;;;;;;41.55;17.55;;;1.50;99.90;;;;;;5110135;28;20036;-48
2023/03/03 03:33:34;;;;;;;33.60;15.55;;;1.50;99.90;;;;;;5111332;28;20039;-48
2023/03/03 03:35:59;;;;;;;38.00;15.63;;;1.50;99.90;;;;;;5109911;28;20043;-49
2023/03/03 03:38:26;;;;;;;36.15;17.15;;;1.50;99.90;;;;;;5106910;28;20039;-49
2023/03/03 03:40:52;;;;;;;31.20;14.38;;;1.50;99.90;;;;;;5111956;28;20500;-48
2023/03/03 03:43:18;;;;;;;33.33;13.25;;;1.50;99.90;;;;;;5109258;28;20042;-49
2023/03/03 03:45:44;;;;;;;31.95;14.30;;;1.50;99.90;;;;;;5097004;28;20043;-47
2023/03/03 03:48:10;;;;;;;25.88;11.93;;;1.50;99.90;;;;;;5115555;28;20132;-46
2023/03/03 03:50:37;;;;;;;25.08;10.38;;;1.50;99.90;;;;;;5116781;28;20042;-47
2023/03/03 03:53:03;;;;;;;30.65;13.05;;;1.50;99.90;;;;;;5116198;28;20047;-48
2023/03/03 03:55:29;;;;;;;30.60;13.07;;;1.40;99.90;;;;;;5114213;28;20043;-47
2023/03/03 03:57:56;;;;;;;38.03;12.98;;;1.50;99.90;;;;;;5114938;28;20047;-47
2023/03/03 04:00:22;;;;;;;26.33;13.02;;;1.40;99.90;;;;;;5110632;28;20036;-47
2023/03/03 04:02:48;;;;;;;27.55;12.45;;;1.40;99.90;;;;;;5111214;28;20040;-47
2023/03/03 04:05:14;;;;;;;29.20;9.88;;;1.40;99.90;;;;;;5115265;28;20051;-48
2023/03/03 04:07:39;;;;;;;33.70;12.27;;;1.50;99.90;;;;;;5095405;28;20047;-48
2023/03/03 04:10:06;;;;;;;28.17;12.32;;;1.40;99.90;;;;;;5113775;28;20047;-48
2023/03/03 04:12:37;;;;;;;26.38;11.38;;;1.40;99.90;;;;;;5113040;28;20047;-48
2023/03/03 04:15:09;;;;;;;27.45;13.00;;;1.40;99.90;;;;;;5115974;28;20059;-47
2023/03/03 04:17:35;;;;;;;29.15;12.70;;;1.50;99.90;;;;;;5113644;28;20103;-50
2023/03/03 04:20:02;;;;;;;34.70;12.68;;;1.50;99.90;;;;;;5097270;28;20549;-51
2023/03/03 04:22:29;;;;;;;35.88;12.85;;;1.40;99.90;;;;;;5092027;28;20063;-48
2023/03/03 04:24:54;;;;;;;32.70;12.32;;;1.50;99.90;;;;;;5111981;28;20394;-49
2023/03/03 04:27:20;;;;;;;38.38;13.13;;;1.50;99.90;;;;;;5113028;28;20141;-48
2023/03/03 04:29:45;;;;;;;29.90;12.48;;;1.40;99.90;;;;;;5115620;28;20043;-48
2023/03/03 04:32:11;;;;;;;36.05;11.77;;;1.40;99.90;;;;;;5114393;28;20050;-47
2023/03/03 04:34:37;;;;;;;25.90;12.25;;;1.40;99.90;;;;;;5108009;28;20101;-47
2023/03/03 04:37:02;;;;;;;28.13;12.63;;;1.40;99.90;;;;;;5112021;28;20086;-49
2023/03/03 04:39:28;;;;;;;30.00;12.05;;;1.50;99.90;;;;;;5113252;28;20043;-47
2023/03/03 04:41:54;;;;;;;25.10;11.02;;;1.50;99.90;;;;;;5109881;28;20451;-47
2023/03/03 04:44:19;;;;;;;32.20;10.82;;;1.50;99.90;;;;;;5088005;28;20366;-47
2023/03/03 04:46:45;;;;;;;20.30;8.40;;;1.50;99.90;;;;;;5103034;28;20046;-47
2023/03/03 04:49:11;;;;;;;21.50;9.25;;;1.50;99.90;;;;;;5094047;28;20047;-47
2023/03/03 04:51:36;;;;;;;31.63;9.85;;;1.50;99.90;;;;;;5095854;28;20044;-48
2023/03/03 04:54:02;;;;;;;25.30;11.57;;;1.50;99.90;;;;;;5110082;28;20039;-49
2023/03/03 04:56:30;;;;;;;21.95;9.50;;;1.50;99.90;;;;;;5108994;28;20448;-48
2023/03/03 04:58:56;;;;;;;29.98;9.38;;;1.50;99.90;;;;;;5115785;28;20036;-48
2023/03/03 05:01:22;;;;;;;20.67;9.48;;;1.60;99.90;;;;;;5112833;28;20048;-49
2023/03/03 05:03:47;;;;;;;29.55;10.48;;;1.60;99.90;;;;;;5098849;28;20120;-49
2023/03/03 05:06:13;;;;;;;44.80;11.23;;;1.60;99.90;;;;;;5110781;28;20036;-50
2023/03/03 05:08:39;;;;;;;44.33;10.75;;;1.50;99.90;;;;;;5110638;28;20046;-47
2023/03/03 05:11:05;;;;;;;29.50;11.18;;;1.60;99.90;;;;;;5114604;28;20055;-51
2023/03/03 05:13:30;;;;;;;43.10;12.50;;;1.60;99.90;;;;;;5115174;28;20041;-47
2023/03/03 05:15:56;;;;;;;37.90;11.43;;;1.60;99.90;;;;;;5109005;28;20035;-49
2023/03/03 05:18:24;;;;;;;45.83;12.55;;;1.60;99.90;;;;;;5101353;28;20458;-47
2023/03/03 05:20:50;;;;;;;46.97;12.03;;;1.60;99.90;;;;;;5112132;28;20481;-48
2023/03/03 05:23:17;;;;;;;52.95;13.48;;;1.60;99.90;;;;;;5094719;28;20115;-49
2023/03/03 05:25:45;;;;;;;42.88;12.23;;;1.60;99.90;;;;;;5102117;28;20036;-48
2023/03/03 05:28:11;;;;;;;54.28;12.32;;;1.60;99.90;;;;;;5114263;28;20493;-47
2023/03/03 05:30:37;;;;;;;35.50;11.48;;;1.60;99.90;;;;;;5114315;28;20123;-48
2023/03/03 05:33:03;;;;;;;31.10;12.80;;;1.60;99.90;;;;;;5114270;28;20069;-51
2023/03/03 05:35:29;;;;;;;34.75;12.50;;;1.60;99.90;;;;;;5110149;28;20072;-48
2023/03/03 05:37:56;;;;;;;47.53;13.20;;;1.60;99.90;;;;;;5103322;28;20393;-48
2023/03/03 05:40:23;;;;;;;45.83;13.05;;;1.70;99.90;;;;;;5114870;28;20112;-48
2023/03/03 05:42:49;;;;;;;49.08;13.05;;;1.60;99.90;;;;;;5113994;28;20112;-48
2023/03/03 05:45:15;;;;;;;49.13;13.75;;;1.70;99.90;;;;;;5113736;28;20039;-49
2023/03/03 05:47:40;;;;;;;37.95;14.10;;;1.60;99.90;;;;;;5108399;28;20446;-48
2023/03/03 05:50:06;;;;;;;31.90;14.00;;;1.70;99.90;;;;;;5107354;28;20484;-47
2023/03/03 05:52:32;;;;;;;32.83;13.68;;;1.60;99.90;;;;;;5106780;28;20389;-47
2023/03/03 05:54:57;;;;;;;35.45;14.32;;;1.70;99.90;;;;;;5109283;28;20039;-47
2023/03/03 05:57:23;;;;;;;39.50;15.23;;;1.70;99.90;;;;;;5112339;28;20370;-47
2023/03/03 05:59:49;;;;;;;50.08;15.27;;;1.70;99.90;;;;;;5104576;28;20104;-47
2023/03/03 06:02:14;;;;;;;54.42;15.48;;;1.80;99.90;;;;;;5114118;28;20051;-47
2023/03/03 06:04:40;;;;;;;45.47;15.60;;;1.70;99.90;;;;;;5114159;28;20039;-48
2023/03/03 06:07:05;;;;;;;41.40;15.10;;;1.70;99.90;;;;;;5114260;28;20585;-50
2023/03/03 06:09:32;;;;;;;45.75;14.15;;;1.80;99.90;;;;;;5109781;28;20056;-50
2023/03/03 06:11:58;;;;;;;44.08;14.55;;;1.70;99.90;;;;;;5093979;28;20051;-48
2023/03/03 06:14:24;;;;;;;46.28;14.23;;;1.80;99.90;;;;;;5100563;28;20039;-49
2023/03/03 06:16:49;;;;;;;37.75;14.10;;;1.70;99.90;;;;;;5110944;28;20041;-47
2023/03/03 06:19:15;;;;;;;35.97;13.45;;;1.80;99.90;;;;;;5113915;28;20461;-48
2023/03/03 06:21:41;;;;;;;38.85;15.68;;;1.70;99.90;;;;;;5108214;28;20055;-48
2023/03/03 06:24:07;;;;;;;35.92;14.10;;;1.80;99.90;;;;;;5113797;28;20358;-48
2023/03/03 06:26:33;;;;;;;34.25;14.77;;;1.80;99.90;;;;;;5113255;28;20039;-47
2023/03/03 06:29:00;;;;;;;35.90;15.25;;;1.80;99.90;;;;;;5113838;28;20040;-48
2023/03/03 06:31:26;;;;;;;31.60;14.50;;;1.90;99.90;;;;;;5113717;28;20043;-48
2023/03/03 06:33:52;;;;;;;28.33;13.82;;;1.80;99.90;;;;;;5104521;28;20044;-49
2023/03/03 06:36:19;;;;;;;31.13;14.10;;;1.80;99.90;;;;;;5113481;28;20039;-51
2023/03/03 06:38:45;;;;;;;29.92;12.88;;;1.80;99.90;;;;;;5113426;28;20044;-48
2023/03/03 06:41:10;;;;;;;32.30;14.13;;;1.90;99.90;;;;;;5113496;28;20059;-52
2023/03/03 06:43:37;;;;;;;30.60;14.38;;;1.90;99.90;;;;;;5112778;28;20035;-49
2023/03/03 06:46:04;;;;;;;24.80;13.43;;;1.80;99.90;;;;;;5112542;28;20165;-49
2023/03/03 06:48:31;;;;;;;27.38;13.68;;;1.90;99.90;;;;;;5113179;28;20482;-51
2023/03/03 06:50:59;;;;;;;28.17;13.63;;;1.90;99.90;;;;;;5112004;28;20043;-49
2023/03/03 06:53:25;;;;;;;27.13;13.40;;;1.90;99.90;;;;;;5095031;28;20411;-48
2023/03/03 06:55:51;;;;;;;29.08;13.88;;;1.90;99.90;;;;;;5105654;28;20119;-50
2023/03/03 06:58:20;;;;;;;26.67;13.60;;;1.90;99.90;;;;;;5111514;28;20118;-49
2023/03/03 07:00:59;;;;;;;28.48;13.02;;;1.90;99.90;;;;;;5107132;28;21936;-52
2023/03/03 07:03:29;;;;;;;27.83;14.52;;;2.00;99.90;;;;;;5110722;28;20557;-48
2023/03/03 07:05:55;;;;;;;29.80;13.98;;;2.10;99.90;;;;;;5093143;28;20045;-48
2023/03/03 07:08:22;;;;;;;31.95;14.88;;;2.10;99.90;;;;;;5108892;28;20035;-48
2023/03/03 07:10:50;;;;;;;26.42;13.88;;;2.20;99.90;;;;;;5109987;28;22032;-48
2023/03/03 07:13:17;;;;;;;29.48;13.50;;;2.20;99.90;;;;;;5105980;28;20051;-48
2023/03/03 07:15:43;;;;;;;24.85;13.10;;;2.20;99.90;;;;;;5112961;28;20035;-48
2023/03/03 07:18:57;;;;;;;26.00;13.82;;;2.30;99.90;;;;;;5110369;28;20143;-52
2023/03/03 07:21:32;;;;;;;22.52;11.77;;;2.30;99.90;;;;;;5010623;28;20050;-50
2023/03/03 07:24:00;;;;;;;24.17;13.20;;;2.40;99.90;;;;;;5009293;28;20530;-48
2023/03/03 07:26:32;;;;;;;24.42;13.52;;;2.40;99.90;;;;;;5000101;28;20060;-48
2023/03/03 07:29:00;;;;;;;20.73;11.98;;;2.40;99.90;;;;;;5003046;28;20097;-48
2023/03/03 07:31:36;;;;;;;22.90;12.43;;;2.40;99.90;;;;;;5008259;28;20041;-49
2023/03/03 07:34:16;;;;;;;18.30;10.93;;;2.40;99.90;;;;;;5002339;28;20049;-49
2023/03/03 07:36:42;;;;;;;18.83;11.73;;;2.40;99.90;;;;;;5001322;28;20050;-49
2023/03/03 07:39:29;;;;;;;17.98;11.68;;;2.50;99.90;;;;;;5003214;28;20515;-49
2023/03/03 07:42:07;;;;;;;17.95;11.50;;;2.50;99.90;;;;;;5006263;28;20141;-49
2023/03/03 07:44:36;;;;;;;;;;;2.50;99.90;;;;;;5003075;28;20050;-49
2023/03/03 07:47:28;;;;;;;17.58;11.07;;;2.60;99.90;;;;;;5005848;28;20048;-52
2023/03/03 07:49:56;;;;;;;17.60;11.60;;;2.80;99.90;;;;;;5007261;28;20385;-50
2023/03/03 07:52:38;;;;;;;21.98;12.50;;;2.90;99.90;;;;;;5001724;28;20041;-52
2023/03/03 07:55:19;;;;;;;18.67;12.05;;;3.00;99.90;;;;;;5037741;28;20048;-51
2023/03/03 07:57:45;;;;;;;19.23;10.68;;;3.20;99.90;;;;;;5105573;28;20074;-49
2023/03/03 08:00:15;;;;;;;16.23;10.93;;;3.20;99.90;;;;;;5106950;28;20083;-51
2023/03/03 08:02:43;;;;;;;17.73;11.00;;;3.30;99.90;;;;;;5099349;28;20305;-50
2023/03/03 08:05:22;;;;;;;17.58;11.35;;;3.30;99.90;;;;;;5105312;28;20043;-51
2023/03/03 08:07:49;;;;;;;17.67;11.25;;;3.50;99.90;;;;;;5107260;28;20044;-50
2023/03/03 08:10:35;;;;;;;20.60;11.80;;;3.60;99.90;;;;;;5105114;28;20438;-49
2023/03/03 08:13:15;;;;;;;17.20;10.77;;;3.80;99.90;;;;;;5106767;28;20038;-49
2023/03/03 08:15:40;;;;;;;17.33;11.55;;;3.90;99.90;;;;;;5105271;28;20062;-51
2023/03/03 08:18:21;;;;;;;14.10;10.10;;;4.00;99.90;;;;;;5105891;28;20490;-50
2023/03/03 08:20:49;;;;;;;16.25;10.27;;;4.10;99.90;;;;;;5112371;28;20043;-51
2023/03/03 08:23:17;;;;;;;14.93;11.00;;;4.30;99.90;;;;;;5112550;28;20127;-49
2023/03/03 08:25:43;;;;;;;15.70;10.80;;;4.50;99.90;;;;;;5112383;28;20110;-53
2023/03/03 08:28:10;;;;;;;17.92;11.98;;;4.60;99.90;;;;;;5112481;28;20050;-50
2023/03/03 08:30:35;;;;;;;18.08;11.90;;;4.80;99.90;;;;;;5113578;28;20546;-50
2023/03/03 08:33:01;;;;;;;17.65;11.60;;;5.20;99.90;;;;;;5115865;28;20040;-50
2023/03/03 08:35:27;;;;;;;18.13;12.32;;;5.20;99.90;;;;;;5115938;28;20046;-51
2023/03/03 08:37:52;;;;;;;15.32;10.82;;;5.40;99.90;;;;;;5113102;28;20043;-53
2023/03/03 08:40:18;;;;;;;12.77;8.38;;;5.40;99.90;;;;;;5115517;28;20496;-53
2023/03/03 08:42:44;;;;;;;13.35;10.23;;;5.30;99.90;;;;;;5113550;28;20115;-51
2023/03/03 08:45:09;;;;;;;12.30;8.82;;;5.20;99.90;;;;;;5115943;28;20040;-53
2023/03/03 08:47:35;;;;;;;12.90;9.48;;;5.30;99.90;;;;;;5114856;28;20035;-51
2023/03/03 08:50:01;;;;;;;11.15;9.23;;;5.40;99.90;;;;;;5114924;28;20043;-51
2023/03/03 08:52:26;;;;;;;14.30;10.10;;;5.50;99.90;;;;;;5115046;28;20036;-49
2023/03/03 08:54:53;;;;;;;14.63;10.00;;;5.90;99.90;;;;;;5115774;28;20044;-51
2023/03/03 08:57:18;;;;;;;20.25;9.65;;;6.30;99.90;;;;;;5114101;28;20046;-52
2023/03/03 08:59:46;;;;;;;16.52;9.25;;;6.40;99.90;;;;;;5115513;28;20035;-51
2023/03/03 09:02:12;;;;;;;13.02;9.85;;;6.40;99.90;;;;;;5115343;28;20051;-51
2023/03/03 09:04:38;;;;;;;11.98;9.00;;;6.30;99.90;;;;;;5116037;28;20039;-51
2023/03/03 09:07:04;;;;;;;13.85;9.60;;;6.50;99.90;;;;;;5115458;28;20039;-50
2023/03/03 09:09:29;;;;;;;12.10;9.05;;;6.50;99.90;;;;;;5115855;28;20070;-49
2023/03/03 09:11:58;;;;;;;12.90;8.75;;;6.80;99.90;;;;;;5117532;28;20098;-52
2023/03/03 09:14:27;;;;;;;11.70;8.18;;;6.80;99.90;;;;;;5119865;28;20039;-53
2023/03/03 09:16:55;;;;;;;11.52;7.90;;;6.80;99.90;;;;;;5118360;28;20058;-50
2023/03/03 09:19:28;;;;;;;12.43;7.70;;;6.60;99.90;;;;;;5115853;28;20409;-50
2023/03/03 09:21:56;;;;;;;11.07;8.23;;;6.40;99.90;;;;;;5115623;28;20092;-49
2023/03/03 09:24:29;;;;;;;;;;;6.50;99.90;;;;;;5115686;28;20043;-49
2023/03/03 09:26:57;;;;;;;11.88;8.52;;;6.60;99.90;;;;;;5115290;28;20437;-50
2023/03/03 09:29:29;;;;;;;11.00;7.25;;;6.70;99.90;;;;;;5115040;28;20051;-53
2023/03/03 09:32:00;;;;;;;9.63;7.40;;;6.50;99.90;;;;;;5115762;28;20044;-50
2023/03/03 09:34:35;;;;;;;10.23;8.00;;;6.40;99.90;;;;;;5115358;28;20404;-51
2023/03/03 09:37:13;;;;;;;9.85;7.38;;;6.40;99.90;;;;;;5114735;28;20115;-50
2023/03/03 09:39:38;;;;;;;;;;;6.50;99.90;;;;;;5109495;28;20126;-50
2023/03/03 09:42:30;;;;;;;11.25;7.70;;;6.60;99.90;;;;;;5113171;28;20341;-49
2023/03/03 09:45:23;;;;;;;11.02;7.25;;;6.50;99.90;;;;;;5109964;28;20074;-47
2023/03/03 09:48:01;;;;;;;9.57;6.38;;;6.50;99.90;;;;;;5110661;28;20055;-47
2023/03/03 09:50:43;;;;;;;9.25;6.15;;;6.70;99.90;;;;;;5102029;28;20050;-47
2023/03/03 09:53:45;;;;;;;9.35;6.20;;;6.90;99.90;;;;;;5111438;28;20493;-48
2023/03/03 09:56:20;;;;;;;10.15;6.93;;;7.10;99.90;;;;;;5011338;28;20050;-48
2023/03/03 09:58:53;;;;;;;10.02;7.13;;;7.10;99.90;;;;;;5000688;28;20034;-48
2023/03/03 10:01:55;;;;;;;8.77;6.05;;;7.20;99.90;;;;;;5008969;28;20154;-47
2023/03/03 10:04:36;;;;;;;8.07;5.57;;;7.10;99.90;;;;;;5000068;28;20107;-47
2023/03/03 10:07:17;;;;;;;7.20;5.60;;;7.00;99.90;;;;;;5007185;28;20097;-47
2023/03/03 10:09:58;;;;;;;11.73;6.47;;;7.20;99.90;;;;;;5008990;28;20119;-48
2023/03/03 10:12:30;;;;;;;10.02;5.95;;;7.20;99.90;;;;;;5012639;28;20412;-48
2023/03/03 10:15:29;;;;;;;9.63;5.88;;;7.40;99.90;;;;;;5009804;28;20050;-49
2023/03/03 10:18:10;;;;;;;9.15;6.13;;;7.70;99.90;;;;;;4997824;28;20489;-47
2023/03/03 10:21:12;;;;;;;7.97;5.60;;;8.10;99.90;;;;;;5007431;28;20050;-47
2023/03/03 10:23:44;;;;;;;10.63;5.30;;;8.40;99.90;;;;;;5007243;28;20192;-49
2023/03/03 10:26:15;;;;;;;7.20;5.30;;;8.40;99.90;;;;;;4992071;28;20069;-48
2023/03/03 10:29:04;;;;;;;7.55;4.72;;;8.80;99.90;;;;;;4790547;22;20365;-47
2023/03/03 10:31:41;;;;;;;8.25;4.85;;;9.00;99.90;;;;;;5007157;28;20034;-47
2023/03/03 10:34:28;;;;;;;10.77;5.72;;;8.90;99.90;;;;;;5010428;28;20052;-47
2023/03/03 10:37:05;;;;;;;9.20;5.35;;;8.90;99.90;;;;;;5007742;28;20050;-47
2023/03/03 10:39:56;;;;;;;7.22;5.20;;;8.80;99.90;;;;;;5008811;28;20046;-50
2023/03/03 10:42:39;;;;;;;8.23;6.22;;;8.70;99.90;;;;;;5008074;28;20052;-47
2023/03/03 10:45:23;;;;;;;9.73;5.63;;;8.80;99.90;;;;;;5010017;28;20081;-47
2023/03/03 10:48:27;;;;;;;10.40;5.03;;;8.70;99.90;;;;;;5011207;28;20073;-51
2023/03/03 10:51:10;;;;;;;6.95;5.18;;;8.50;99.90;;;;;;5015665;28;20099;-48
2023/03/03 10:53:57;;;;;;;9.43;5.15;;;8.50;99.90;;;;;;5011444;28;20072;-48
2023/03/03 10:56:46;;;;;;;9.05;5.32;;;8.50;99.90;;;;;;5013600;28;20084;-48
2023/03/03 10:59:30;;;;;;;7.63;4.90;;;8.50;99.90;;;;;;5009581;28;20416;-48
2023/03/03 11:02:16;;;;;;;9.10;4.75;;;8.30;99.90;;;;;;4988250;28;20515;-48
2023/03/03 11:05:18;;;;;;;7.90;5.28;;;8.40;99.90;;;;;;4988183;28;20046;-48
2023/03/03 11:07:49;;;;;;;8.20;5.65;;;8.30;99.90;;;;;;4988525;28;20078;-52
2023/03/03 11:10:47;;;;;;;7.93;5.65;;;8.50;99.90;;;;;;4983134;28;20397;-47
2023/03/03 11:13:50;;;;;;;7.75;5.43;;;8.60;99.90;;;;;;4980808;28;20386;-48
2023/03/03 11:16:33;;;;;;;10.10;5.32;;;8.60;99.90;;;;;;4980023;28;20077;-48
2023/03/03 11:19:17;;;;;;;12.55;5.93;;;8.70;99.90;;;;;;4992000;28;20042;-47
2023/03/03 11:22:16;;;;;;;7.78;4.95;;;8.70;99.90;;;;;;4989847;28;20039;-48
2023/03/03 11:25:18;;;;;;;7.10;4.90;;;8.70;99.90;;;;;;4993005;28;20108;-48
2023/03/03 11:28:13;;;;;;;10.30;5.70;;;8.70;99.90;;;;;;4988606;28;20045;-48
2023/03/03 11:30:53;;;;;;;11.10;5.88;;;8.70;99.90;;;;;;4988363;28;20113;-50
2023/03/03 11:33:40;;;;;;;8.05;5.70;;;8.60;99.90;;;;;;4990855;28;20129;-48
2023/03/03 11:36:22;;;;;;;8.67;5.70;;;8.60;99.90;;;;;;4991450;28;20049;-47
2023/03/03 11:38:56;;;;;;;9.07;5.90;;;8.50;99.90;;;;;;4988537;28;20049;-47
2023/03/03 11:41:28;;;;;;;8.80;5.68;;;8.50;99.90;;;;;;5017003;28;20053;-48
2023/03/03 11:44:03;;;;;;;9.88;5.55;;;8.60;99.90;;;;;;4989286;28;20049;-53
2023/03/03 11:46:45;;;;;;;7.93;5.30;;;8.60;99.90;;;;;;4992238;28;20121;-56
2023/03/03 11:49:16;;;;;;;11.48;6.20;;;8.60;99.90;;;;;;4987017;28;20497;-55
2023/03/03 11:52:03;;;;;;;14.23;5.53;;;8.50;99.90;;;;;;4987920;28;20034;-54
2023/03/03 11:54:53;;;;;;;9.65;5.35;;;8.50;99.90;;;;;;4991823;28;20047;-56
2023/03/03 11:57:34;;;;;;;6.95;4.85;;;8.50;99.90;;;;;;4986662;28;20078;-60
2023/03/03 12:00:15;;;;;;;11.57;5.22;;;8.40;99.90;;;;;;4990827;28;20121;-58
2023/03/03 12:03:03;;;;;;;6.57;4.85;;;8.40;99.90;;;;;;4986971;28;20047;-58
2023/03/03 12:05:56;;;;;;;9.73;5.43;;;8.40;99.90;;;;;;4991612;28;20181;-58
2023/03/03 12:08:53;;;;;;;6.82;4.63;;;8.40;99.90;;;;;;4989814;28;20046;-58
2023/03/03 12:11:32;;;;;;;11.02;5.53;;;8.30;99.90;;;;;;4994362;28;20148;-59
2023/03/03 12:14:08;;;;;;;8.30;4.88;;;8.40;99.90;;;;;;4993247;28;20054;-59
2023/03/03 12:16:45;;;;;;;7.68;5.53;;;8.30;99.90;;;;;;4994504;28;20124;-54
2023/03/03 12:19:24;;;;;;;9.37;5.03;;;8.10;99.90;;;;;;4978868;28;20078;-55
2023/03/03 12:22:29;;;;;;;8.13;4.95;;;8.10;99.90;;;;;;4983128;28;20039;-56
2023/03/03 12:25:07;;;;;;;10.60;5.53;;;8.20;99.90;;;;;;4971001;28;20137;-56
2023/03/03 12:27:51;;;;;;;8.50;5.43;;;8.20;99.90;;;;;;4987076;28;20081;-57
2023/03/03 12:30:28;;;;;;;10.27;5.28;;;8.30;99.90;;;;;;4989591;28;20496;-57
2023/03/03 12:33:34;;;;;;;9.13;6.10;;;8.40;99.90;;;;;;4989262;28;20096;-57
2023/03/03 12:36:15;;;;;;;11.52;6.32;;;8.50;99.90;;;;;;4925683;29;20078;-58
2023/03/03 12:38:55;;;;;;;9.93;5.90;;;8.60;99.90;;;;;;4924843;29;20118;-56
2023/03/03 12:41:31;;;;;;;7.72;5.18;;;8.60;99.90;;;;;;4927621;29;20418;-54
2023/03/03 12:44:25;;;;;;;9.27;5.45;;;8.70;99.90;;;;;;4933609;29;20051;-54
2023/03/03 12:47:18;;;;;;;8.68;5.47;;;8.70;99.90;;;;;;4923085;29;20530;-55
2023/03/03 12:49:50;;;;;;;7.90;5.63;;;8.70;99.90;;;;;;4931262;29;20048;-57
2023/03/03 12:52:42;;;;;;;8.32;4.75;;;8.70;99.90;;;;;;4932755;29;20044;-58
2023/03/03 12:55:46;;;;;;;7.13;4.30;;;8.60;99.90;;;;;;4930993;29;20386;-57
2023/03/03 12:58:14;;;;;;;9.90;5.57;;;8.50;99.90;;;;;;4932350;29;20047;-58
2023/03/03 13:00:48;;;;;;;;;;;8.40;99.90;;;;;;4931414;29;20056;-55
2023/03/03 13:03:44;;;;;;;7.05;4.55;;;8.40;99.90;;;;;;4932395;29;19922;-59
2023/03/03 13:06:33;;;;;;;5.30;3.53;;;8.40;99.90;;;;;;4930438;29;20088;-54
2023/03/03 13:08:58;;;;;;;5.20;1.58;;;8.40;99.90;;;;;;4924683;29;20048;-57
2023/03/03 13:11:32;;;;;;;5.10;1.85;;;8.10;99.90;;;;;;4933250;29;20062;-55